Concerto — JJ3855 — position and weather

sailwx.info

Track history (hours):
 
Tides and Currents Weather Stations Pressure Air Temp Water Temp Dewpoint Dewpoint Depression Visibility Wind Speed Wind Dir Waves Ship Positions

Concerto

Last reported at 2015-Mar-05 05:29 UTC. Time now 2015-Mar-05 06:36 UTC.
Position N 34°41' E 135°11'.

Length 74 m; draft 3 m.

Type: Passenger vessel. MMSI: 431000448.

Date/timePositionNaut miles runAvg speedWind from/ knotsBaromVisibWave heightAir tempDewpointWater temp
2015-Mar-05 05:29N 34°41' E 135°11'1 0.8
2015-Mar-05 04:33N 34°40' E 135°12'3 3.0
2015-Mar-05 03:33N 34°38' E 135°09'3 0.2
2015-Mar-04 13:07N 34°41' E 135°11'0 0.0
2015-Mar-04 12:31N 34°41' E 135°11'3 3.1
2015-Mar-04 11:33N 34°38' E 135°10'2 2.1
2015-Mar-04 10:33N 34°40' E 135°11'1 0.7
2015-Mar-04 09:34N 34°39' E 135°11'1 0.7
2015-Mar-04 08:34N 34°39' E 135°11'2 2.2
2015-Mar-04 07:30N 34°41' E 135°11'3 3.1
2015-Mar-04 06:33N 34°38' E 135°10'3 2.8
2015-Mar-04 05:31N 34°41' E 135°11'0 0.3
2015-Mar-04 04:33N 34°41' E 135°11'3 3.0
2015-Mar-04 03:33N 34°38' E 135°10'3 3.2
2015-Mar-04 02:33N 34°41' E 135°11'2 0.2
2015-Mar-03 11:33N 34°38' E 135°11'1 1.4
2015-Mar-03 10:33N 34°40' E 135°11'1 0.6
2015-Mar-03 09:33N 34°39' E 135°11'1 0.8
2015-Mar-03 08:33N 34°39' E 135°11'2 2.2
2015-Mar-03 07:31N 34°41' E 135°11'3 3.6
2015-Mar-03 06:33N 34°38' E 135°09'3 3.3
2015-Mar-03 05:30N 34°41' E 135°11'0 0.4
2015-Mar-03 04:33N 34°41' E 135°11'3 3.2
2015-Mar-03 03:33N 34°38' E 135°09'3 3.3
2015-Mar-03 02:33N 34°41' E 135°11'0 0.0
2015-Mar-03 01:33N 34°41' E 135°11'0 0.0
2015-Mar-03 00:33N 34°41' E 135°11'0 0.0
2015-Mar-02 23:33N 34°41' E 135°11'0 0.0
2015-Mar-02 22:33N 34°41' E 135°11'0 0.0
2015-Mar-02 21:33N 34°41' E 135°11'0 0.0
2015-Mar-02 20:33N 34°41' E 135°11'0 0.0
2015-Mar-02 19:33N 34°41' E 135°11'0 0.0
2015-Mar-02 18:33N 34°41' E 135°11'0 0.0
2015-Mar-02 17:33N 34°41' E 135°11'0 0.0
2015-Mar-02 16:33N 34°41' E 135°11'0 0.0
2015-Mar-02 15:33N 34°41' E 135°11'0 0.0
2015-Mar-02 14:33N 34°41' E 135°11'0 0.0
2015-Mar-02 13:33N 34°41' E 135°11'0 0.0
2015-Mar-02 12:33N 34°41' E 135°11'3 2.8
2015-Mar-02 11:33N 34°38' E 135°11'2 1.8
2015-Mar-02 10:33N 34°40' E 135°11'1 0.7
2015-Mar-02 09:33N 34°39' E 135°11'1 0.8
2015-Mar-02 08:34N 34°39' E 135°11'2 2.2
2015-Mar-02 07:33N 34°41' E 135°11'3 3.4
2015-Mar-02 06:33N 34°38' E 135°09'3 3.2
2015-Mar-02 05:31N 34°41' E 135°11'0 0.3
2015-Mar-02 04:34N 34°41' E 135°11'3 2.8
2015-Mar-02 03:34N 34°38' E 135°10'3 2.9
2015-Mar-02 02:33N 34°41' E 135°11'3 0.2
2015-Mar-01 11:33N 34°38' E 135°11'2 2.0
2015-Mar-01 10:33N 34°40' E 135°11'1 1.2
2015-Mar-01 09:33N 34°39' E 135°11'1 0.6
2015-Mar-01 08:33N 34°39' E 135°11'2 2.3
2015-Mar-01 07:33N 34°41' E 135°11'4 3.7
2015-Mar-01 06:33N 34°37' E 135°09'4 3.4
2015-Mar-01 05:28N 34°41' E 135°11'1 0.7
2015-Mar-01 04:33N 34°40' E 135°12'3 2.9
2015-Mar-01 03:33N 34°38' E 135°09'3 3.3
2015-Mar-01 02:33N 34°41' E 135°11'3 0.2
2015-Feb-28 11:33N 34°38' E 135°11'2 2.1
2015-Feb-28 10:33N 34°40' E 135°11'1 1.0
2015-Feb-28 09:34N 34°39' E 135°11'1 0.8
2015-Feb-28 08:33N 34°39' E 135°11'2 2.2
2015-Feb-28 07:31N 34°41' E 135°11'3 3.4
2015-Feb-28 06:33N 34°38' E 135°09'3 3.2
2015-Feb-28 05:33N 34°41' E 135°11'1 0.6
2015-Feb-28 04:33N 34°40' E 135°12'3 3.1
2015-Feb-28 03:33N 34°38' E 135°09'3 3.3
2015-Feb-28 02:33N 34°41' E 135°11'3 0.2
2015-Feb-27 11:33N 34°38' E 135°11'2 2.0
2015-Feb-27 10:34N 34°40' E 135°11'1 0.9
2015-Feb-27 09:33N 34°39' E 135°11'1 0.7
2015-Feb-27 08:33N 34°39' E 135°11'2 2.2
2015-Feb-27 07:30N 34°41' E 135°11'4 3.8
2015-Feb-27 06:33N 34°38' E 135°09'4 3.2
2015-Feb-27 05:27N 34°41' E 135°11'1 0.7
2015-Feb-27 04:33N 34°40' E 135°12'3 3.0
2015-Feb-27 03:33N 34°38' E 135°10'3 3.4
2015-Feb-27 02:33N 34°41' E 135°11'0 0.0
2015-Feb-26 13:08N 34°41' E 135°11'0 0.1
2015-Feb-26 12:34N 34°41' E 135°11'3 2.6
2015-Feb-26 11:33N 34°38' E 135°11'2 1.6
2015-Feb-26 10:34N 34°40' E 135°11'0 0.4
2015-Feb-26 09:33N 34°39' E 135°11'1 0.8
2015-Feb-26 08:33N 34°39' E 135°11'2 2.2
2015-Feb-26 07:30N 34°41' E 135°11'3 3.6
2015-Feb-26 06:33N 34°38' E 135°09'3 3.2
2015-Feb-26 05:29N 34°41' E 135°11'0 0.5
2015-Feb-26 04:33N 34°40' E 135°12'3 3.2
2015-Feb-26 03:33N 34°38' E 135°09'3 3.3
2015-Feb-26 02:33N 34°41' E 135°11'0 0.0
2015-Feb-26 01:33N 34°41' E 135°11'0 0.0
2015-Feb-26 00:33N 34°41' E 135°11'0 0.0
2015-Feb-25 23:33N 34°41' E 135°11'0 0.0
2015-Feb-25 22:33N 34°41' E 135°11'0 0.0
2015-Feb-25 21:33N 34°41' E 135°11'0 0.0
2015-Feb-25 20:33N 34°41' E 135°11'0 0.0
2015-Feb-25 19:33N 34°41' E 135°11'0 0.0
2015-Feb-25 18:33N 34°41' E 135°11'0 0.0
2015-Feb-25 17:33N 34°41' E 135°11'0 0.0
2015-Feb-25 16:33N 34°41' E 135°11'0 0.0
2015-Feb-25 15:33N 34°41' E 135°11'0 0.0
2015-Feb-25 14:33N 34°41' E 135°11'0 0.0
2015-Feb-25 13:33N 34°41' E 135°11'0 0.0
2015-Feb-25 12:33N 34°41' E 135°11'2 2.4
2015-Feb-25 11:33N 34°38' E 135°11'1 1.5
2015-Feb-25 10:33N 34°40' E 135°12'1 0.8
2015-Feb-25 09:33N 34°39' E 135°11'1 0.7
2015-Feb-25 08:33N 34°39' E 135°11'2 1.9
2015-Feb-25 07:25N 34°41' E 135°11'3 3.8
2015-Feb-25 06:33N 34°38' E 135°09'3 3.1
2015-Feb-25 05:29N 34°41' E 135°11'0 0.5
2015-Feb-25 04:33N 34°41' E 135°12'3 3.4
2015-Feb-25 03:33N 34°38' E 135°09'3 3.1
2015-Feb-25 02:27N 34°41' E 135°11'0 0.0
2015-Feb-24 12:19N 34°41' E 135°11'3 3.7
2015-Feb-24 11:33N 34°38' E 135°11'2 1.7
2015-Feb-24 10:34N 34°40' E 135°11'1 0.8
2015-Feb-24 09:33N 34°39' E 135°11'0 0.5
2015-Feb-24 08:33N 34°39' E 135°11'2 1.8
2015-Feb-24 07:25N 34°41' E 135°11'3 3.8
2015-Feb-24 06:33N 34°38' E 135°09'3 3.3
2015-Feb-24 05:33N 34°41' E 135°11'0 0.4
2015-Feb-24 04:33N 34°40' E 135°11'3 3.1
2015-Feb-24 03:33N 34°38' E 135°09'3 3.3
2015-Feb-24 02:33N 34°41' E 135°11'3 0.2
2015-Feb-23 11:33N 34°38' E 135°10'2 2.1
2015-Feb-23 10:33N 34°40' E 135°11'1 0.5
2015-Feb-23 09:34N 34°39' E 135°11'1 0.6
2015-Feb-23 08:33N 34°39' E 135°11'2 1.8
2015-Feb-23 07:24N 34°41' E 135°11'3 3.9
2015-Feb-23 06:33N 34°38' E 135°09'  
Track history (hours):
 
Tides and Currents Weather Stations Pressure Air Temp Water Temp Dewpoint Dewpoint Depression Visibility Wind Speed Wind Dir Waves Ship Positions

Concerto

Last reported at 2015-Mar-05 05:29 UTC. Time now 2015-Mar-05 06:36 UTC.
Position N 34°41' E 135°11'.

Length 74 m; draft 3 m.

Type: Passenger vessel. MMSI: 431000448.

Date/timePositionNaut miles runAvg speedWind from/ knotsBaromVisibWave heightAir tempDewpointWater temp
2015-Mar-05 05:29N 34°41' E 135°11'1 0.8
2015-Mar-05 04:33N 34°40' E 135°12'3 3.0
2015-Mar-05 03:33N 34°38' E 135°09'3 0.2
2015-Mar-04 13:07N 34°41' E 135°11'0 0.0
2015-Mar-04 12:31N 34°41' E 135°11'3 3.1
2015-Mar-04 11:33N 34°38' E 135°10'2 2.1
2015-Mar-04 10:33N 34°40' E 135°11'1 0.7
2015-Mar-04 09:34N 34°39' E 135°11'1 0.7
2015-Mar-04 08:34N 34°39' E 135°11'2 2.2
2015-Mar-04 07:30N 34°41' E 135°11'3 3.1
2015-Mar-04 06:33N 34°38' E 135°10'3 2.8
2015-Mar-04 05:31N 34°41' E 135°11'0 0.3
2015-Mar-04 04:33N 34°41' E 135°11'3 3.0
2015-Mar-04 03:33N 34°38' E 135°10'3 3.2
2015-Mar-04 02:33N 34°41' E 135°11'2 0.2
2015-Mar-03 11:33N 34°38' E 135°11'1 1.4
2015-Mar-03 10:33N 34°40' E 135°11'1 0.6
2015-Mar-03 09:33N 34°39' E 135°11'1 0.8
2015-Mar-03 08:33N 34°39' E 135°11'2 2.2
2015-Mar-03 07:31N 34°41' E 135°11'3 3.6
2015-Mar-03 06:33N 34°38' E 135°09'3 3.3
2015-Mar-03 05:30N 34°41' E 135°11'0 0.4
2015-Mar-03 04:33N 34°41' E 135°11'3 3.2
2015-Mar-03 03:33N 34°38' E 135°09'3 3.3
2015-Mar-03 02:33N 34°41' E 135°11'0 0.0
2015-Mar-03 01:33N 34°41' E 135°11'0 0.0
2015-Mar-03 00:33N 34°41' E 135°11'0 0.0
2015-Mar-02 23:33N 34°41' E 135°11'0 0.0
2015-Mar-02 22:33N 34°41' E 135°11'0 0.0
2015-Mar-02 21:33N 34°41' E 135°11'0 0.0
2015-Mar-02 20:33N 34°41' E 135°11'0 0.0
2015-Mar-02 19:33N 34°41' E 135°11'0 0.0
2015-Mar-02 18:33N 34°41' E 135°11'0 0.0
2015-Mar-02 17:33N 34°41' E 135°11'0 0.0
2015-Mar-02 16:33N 34°41' E 135°11'0 0.0
2015-Mar-02 15:33N 34°41' E 135°11'0 0.0
2015-Mar-02 14:33N 34°41' E 135°11'0 0.0
2015-Mar-02 13:33N 34°41' E 135°11'0 0.0
2015-Mar-02 12:33N 34°41' E 135°11'3 2.8
2015-Mar-02 11:33N 34°38' E 135°11'2 1.8
2015-Mar-02 10:33N 34°40' E 135°11'1 0.7
2015-Mar-02 09:33N 34°39' E 135°11'1 0.8
2015-Mar-02 08:34N 34°39' E 135°11'2 2.2
2015-Mar-02 07:33N 34°41' E 135°11'3 3.4
2015-Mar-02 06:33N 34°38' E 135°09'3 3.2
2015-Mar-02 05:31N 34°41' E 135°11'0 0.3
2015-Mar-02 04:34N 34°41' E 135°11'3 2.8
2015-Mar-02 03:34N 34°38' E 135°10'3 2.9
2015-Mar-02 02:33N 34°41' E 135°11'3 0.2
2015-Mar-01 11:33N 34°38' E 135°11'2 2.0
2015-Mar-01 10:33N 34°40' E 135°11'1 1.2
2015-Mar-01 09:33N 34°39' E 135°11'1 0.6
2015-Mar-01 08:33N 34°39' E 135°11'2 2.3
2015-Mar-01 07:33N 34°41' E 135°11'4 3.7
2015-Mar-01 06:33N 34°37' E 135°09'4 3.4
2015-Mar-01 05:28N 34°41' E 135°11'1 0.7
2015-Mar-01 04:33N 34°40' E 135°12'3 2.9
2015-Mar-01 03:33N 34°38' E 135°09'3 3.3
2015-Mar-01 02:33N 34°41' E 135°11'3 0.2
2015-Feb-28 11:33N 34°38' E 135°11'2 2.1
2015-Feb-28 10:33N 34°40' E 135°11'1 1.0
2015-Feb-28 09:34N 34°39' E 135°11'1 0.8
2015-Feb-28 08:33N 34°39' E 135°11'2 2.2
2015-Feb-28 07:31N 34°41' E 135°11'3 3.4
2015-Feb-28 06:33N 34°38' E 135°09'3 3.2
2015-Feb-28 05:33N 34°41' E 135°11'1 0.6
2015-Feb-28 04:33N 34°40' E 135°12'3 3.1
2015-Feb-28 03:33N 34°38' E 135°09'3 3.3
2015-Feb-28 02:33N 34°41' E 135°11'3 0.2
2015-Feb-27 11:33N 34°38' E 135°11'2 2.0
2015-Feb-27 10:34N 34°40' E 135°11'1 0.9
2015-Feb-27 09:33N 34°39' E 135°11'1 0.7
2015-Feb-27 08:33N 34°39' E 135°11'2 2.2
2015-Feb-27 07:30N 34°41' E 135°11'4 3.8
2015-Feb-27 06:33N 34°38' E 135°09'4 3.2
2015-Feb-27 05:27N 34°41' E 135°11'1 0.7
2015-Feb-27 04:33N 34°40' E 135°12'3 3.0
2015-Feb-27 03:33N 34°38' E 135°10'3 3.4
2015-Feb-27 02:33N 34°41' E 135°11'0 0.0
2015-Feb-26 13:08N 34°41' E 135°11'0 0.1
2015-Feb-26 12:34N 34°41' E 135°11'3 2.6
2015-Feb-26 11:33N 34°38' E 135°11'2 1.6
2015-Feb-26 10:34N 34°40' E 135°11'0 0.4
2015-Feb-26 09:33N 34°39' E 135°11'1 0.8
2015-Feb-26 08:33N 34°39' E 135°11'2 2.2
2015-Feb-26 07:30N 34°41' E 135°11'3 3.6
2015-Feb-26 06:33N 34°38' E 135°09'3 3.2
2015-Feb-26 05:29N 34°41' E 135°11'0 0.5
2015-Feb-26 04:33N 34°40' E 135°12'3 3.2
2015-Feb-26 03:33N 34°38' E 135°09'3 3.3
2015-Feb-26 02:33N 34°41' E 135°11'0 0.0
2015-Feb-26 01:33N 34°41' E 135°11'0 0.0
2015-Feb-26 00:33N 34°41' E 135°11'0 0.0
2015-Feb-25 23:33N 34°41' E 135°11'0 0.0
2015-Feb-25 22:33N 34°41' E 135°11'0 0.0
2015-Feb-25 21:33N 34°41' E 135°11'0 0.0
2015-Feb-25 20:33N 34°41' E 135°11'0 0.0
2015-Feb-25 19:33N 34°41' E 135°11'0 0.0
2015-Feb-25 18:33N 34°41' E 135°11'0 0.0
2015-Feb-25 17:33N 34°41' E 135°11'0 0.0
2015-Feb-25 16:33N 34°41' E 135°11'0 0.0
2015-Feb-25 15:33N 34°41' E 135°11'0 0.0
2015-Feb-25 14:33N 34°41' E 135°11'0 0.0
2015-Feb-25 13:33N 34°41' E 135°11'0 0.0
2015-Feb-25 12:33N 34°41' E 135°11'2 2.4
2015-Feb-25 11:33N 34°38' E 135°11'1 1.5
2015-Feb-25 10:33N 34°40' E 135°12'1 0.8
2015-Feb-25 09:33N 34°39' E 135°11'1 0.7
2015-Feb-25 08:33N 34°39' E 135°11'2 1.9
2015-Feb-25 07:25N 34°41' E 135°11'3 3.8
2015-Feb-25 06:33N 34°38' E 135°09'3 3.1
2015-Feb-25 05:29N 34°41' E 135°11'0 0.5
2015-Feb-25 04:33N 34°41' E 135°12'3 3.4
2015-Feb-25 03:33N 34°38' E 135°09'3 3.1
2015-Feb-25 02:27N 34°41' E 135°11'0 0.0
2015-Feb-24 12:19N 34°41' E 135°11'3 3.7
2015-Feb-24 11:33N 34°38' E 135°11'2 1.7
2015-Feb-24 10:34N 34°40' E 135°11'1 0.8
2015-Feb-24 09:33N 34°39' E 135°11'0 0.5
2015-Feb-24 08:33N 34°39' E 135°11'2 1.8
2015-Feb-24 07:25N 34°41' E 135°11'3 3.8
2015-Feb-24 06:33N 34°38' E 135°09'3 3.3
2015-Feb-24 05:33N 34°41' E 135°11'0 0.4
2015-Feb-24 04:33N 34°40' E 135°11'3 3.1
2015-Feb-24 03:33N 34°38' E 135°09'3 3.3
2015-Feb-24 02:33N 34°41' E 135°11'3 0.2
2015-Feb-23 11:33N 34°38' E 135°10'2 2.1
2015-Feb-23 10:33N 34°40' E 135°11'1 0.5
2015-Feb-23 09:34N 34°39' E 135°11'1 0.6
2015-Feb-23 08:33N 34°39' E 135°11'2 1.8
2015-Feb-23 07:24N 34°41' E 135°11'3 3.9
2015-Feb-23 06:33N 34°38' E 135°09'  

Dump ship's entire track history